KLAX

Los Angeles International Airport

Los Angeles, California, USA
METAR KLAX 221353Z 11005KT 8SM BKN016 18/14 A2990 RMK AO2 SLP122 T01830144 $
Observed Flight Rules
Oct-22 @ 13:53 UTC (28 minutes ago) Marginal Visual Flight Rules
Wind Visibility Clouds
110° at 5 knots 8 miles
  • Broken at 1,600' AGL
Temperatures Readings
Current 18°C / 64°F
Dewpoint 14°C / 57°F
Humidity 78%
Altimeter 29.9" Hg
Pressure 1012.2 hPa
Elevation 46
METAR KLAX 221353Z 11005KT 8SM BKN016 18/14 A2990 RMK AO2 SLP122 T01830144 $
Observed Flight Rules
Oct-22 @ 13:53 UTC
(28 minutes ago)
MVFR
Wind Visibility
110° at 5 knots 8 miles
Clouds
  • Broken at 1,600' AGL
Temperature Dewpoint
18°C / 64°F 14°C / 57°F
Humidity Altimeter Pressure
78% 29.9" Hg 1012.2 hPa